UZB875 UZTT-UZSS
Flight info
| Callsign | UZB875 |
|---|---|
| Flight time | 0h 26m |
| Altitude | 18000 |
| Route | KUFIM1B KUFIM M168 NETAT Y92 TITAR TITAR2X |
| Aircraft | B789/H-SDE1E2E3FGHIJ2J3J4J5M1RWXY/LB1D1 |
Departure
| Time | 2026-04-27 19:00 |
|---|---|
| Airport | Tashkent International Airport (UZTT) |
Arrival
| Time | 2026-04-27 19:26 |
|---|---|
| Airport | Samarkand International Airport (UZSS) |
| Time | Latitude | Longitude | Altitude | Speed | Heading |
|---|---|---|---|---|---|
| 2026-04-27 18:42 | 41.26172 | 69.27351 | 1402 ft | 0 kts | 330° |
| 2026-04-27 18:53 | 41.26177 | 69.27345 | 1402 ft | 3 kts | 318° |
| 2026-04-27 18:53 | 41.26190 | 69.27297 | 1399 ft | 7 kts | 275° |
| 2026-04-27 18:54 | 41.26163 | 69.27219 | 1399 ft | 12 kts | 225° |
| 2026-04-27 18:54 | 41.26111 | 69.27197 | 1398 ft | 10 kts | 158° |
| 2026-04-27 18:54 | 41.26072 | 69.27261 | 1393 ft | 9 kts | 96° |
| 2026-04-27 18:54 | 41.26080 | 69.27385 | 1403 ft | 19 kts | 82° |
| 2026-04-27 18:55 | 41.26105 | 69.27611 | 1393 ft | 28 kts | 82° |
| 2026-04-27 18:55 | 41.26133 | 69.27862 | 1395 ft | 27 kts | 81° |
| 2026-04-27 18:55 | 41.26160 | 69.28102 | 1398 ft | 26 kts | 82° |
| 2026-04-27 18:55 | 41.26185 | 69.28332 | 1401 ft | 25 kts | 82° |
| 2026-04-27 18:56 | 41.26187 | 69.28550 | 1393 ft | 23 kts | 93° |
| 2026-04-27 18:56 | 41.26182 | 69.28764 | 1403 ft | 22 kts | 87° |
| 2026-04-27 18:56 | 41.26190 | 69.28961 | 1396 ft | 21 kts | 87° |
| 2026-04-27 18:56 | 41.26198 | 69.29196 | 1401 ft | 28 kts | 87° |
| 2026-04-27 18:57 | 41.26207 | 69.29444 | 1399 ft | 26 kts | 87° |
| 2026-04-27 18:57 | 41.26217 | 69.29681 | 1400 ft | 25 kts | 87° |
| 2026-04-27 18:57 | 41.26225 | 69.29901 | 1405 ft | 18 kts | 88° |
| 2026-04-27 18:57 | 41.26197 | 69.30003 | 1402 ft | 8 kts | 141° |
| 2026-04-27 18:58 | 41.26167 | 69.30036 | 1410 ft | 3 kts | 141° |
| 2026-04-27 18:58 | 41.26157 | 69.30047 | 1409 ft | 4 kts | 134° |
| 2026-04-27 18:58 | 41.26131 | 69.30065 | 1409 ft | 7 kts | 156° |
| 2026-04-27 18:58 | 41.26090 | 69.30075 | 1411 ft | 8 kts | 199° |
| 2026-04-27 18:59 | 41.26049 | 69.29960 | 1412 ft | 22 kts | 261° |
| 2026-04-27 18:59 | 41.26002 | 69.29523 | 1413 ft | 86 kts | 262° |
| 2026-04-27 18:59 | 41.25878 | 69.28382 | 1419 ft | 161 kts | 261° |
| 2026-04-27 18:59 | 41.25694 | 69.26821 | 1997 ft | 174 kts | 259° |
| 2026-04-27 19:00 | 41.25489 | 69.25217 | 2752 ft | 180 kts | 260° |
| 2026-04-27 19:00 | 41.25266 | 69.23544 | 3507 ft | 185 kts | 259° |
| 2026-04-27 19:00 | 41.24664 | 69.22061 | 4346 ft | 187 kts | 223° |
| 2026-04-27 19:00 | 41.23659 | 69.20888 | 5082 ft | 198 kts | 221° |
| 2026-04-27 19:01 | 41.22611 | 69.19653 | 5856 ft | 205 kts | 223° |
| 2026-04-27 19:01 | 41.21529 | 69.18376 | 6642 ft | 212 kts | 221° |
| 2026-04-27 19:01 | 41.20359 | 69.17105 | 7367 ft | 223 kts | 218° |
| 2026-04-27 19:01 | 41.19152 | 69.15758 | 8134 ft | 229 kts | 221° |
| 2026-04-27 19:02 | 41.17980 | 69.14292 | 8922 ft | 233 kts | 224° |
| 2026-04-27 19:02 | 41.16810 | 69.12792 | 9724 ft | 235 kts | 223° |
| 2026-04-27 19:02 | 41.15585 | 69.11249 | 10378 ft | 253 kts | 223° |
| 2026-04-27 19:02 | 41.14242 | 69.09572 | 11069 ft | 276 kts | 223° |
| 2026-04-27 19:03 | 41.12791 | 69.07758 | 11796 ft | 297 kts | 223° |
| 2026-04-27 19:03 | 41.11234 | 69.05807 | 12580 ft | 318 kts | 223° |
| 2026-04-27 19:03 | 41.09594 | 69.03753 | 13381 ft | 338 kts | 223° |
| 2026-04-27 19:03 | 41.08414 | 69.02278 | 13932 ft | 351 kts | 223° |
| 2026-04-27 19:04 | 41.05983 | 68.99242 | 14983 ft | 374 kts | 223° |
| 2026-04-27 19:04 | 41.04041 | 68.96818 | 15811 ft | 390 kts | 223° |
| 2026-04-27 19:04 | 41.02031 | 68.94311 | 16727 ft | 403 kts | 223° |
| 2026-04-27 19:04 | 40.99951 | 68.91718 | 17561 ft | 419 kts | 223° |
| 2026-04-27 19:05 | 40.97764 | 68.88996 | 17936 ft | 444 kts | 223° |
| 2026-04-27 19:05 | 40.95503 | 68.86184 | 17932 ft | 450 kts | 223° |
| 2026-04-27 19:05 | 40.93210 | 68.83335 | 17933 ft | 455 kts | 223° |
| 2026-04-27 19:05 | 40.90905 | 68.80474 | 17935 ft | 452 kts | 223° |
| 2026-04-27 19:06 | 40.88603 | 68.77621 | 17929 ft | 454 kts | 223° |
| 2026-04-27 19:06 | 40.86301 | 68.74769 | 17928 ft | 453 kts | 223° |
| 2026-04-27 19:06 | 40.83998 | 68.71919 | 17924 ft | 454 kts | 223° |
| 2026-04-27 19:06 | 40.81692 | 68.69068 | 17930 ft | 454 kts | 223° |
| 2026-04-27 19:07 | 40.79536 | 68.66035 | 17925 ft | 455 kts | 229° |
| 2026-04-27 19:07 | 40.78158 | 68.63951 | 17919 ft | 454 kts | 228° |
| 2026-04-27 19:07 | 40.76088 | 68.60812 | 17931 ft | 454 kts | 229° |
| 2026-04-27 19:07 | 40.73997 | 68.57685 | 17926 ft | 454 kts | 227° |
| 2026-04-27 19:08 | 40.71795 | 68.54702 | 17932 ft | 454 kts | 226° |
| 2026-04-27 19:08 | 40.69627 | 68.51660 | 17932 ft | 454 kts | 226° |
| 2026-04-27 19:08 | 40.67463 | 68.48615 | 17935 ft | 455 kts | 226° |
| 2026-04-27 19:08 | 40.65276 | 68.45601 | 17927 ft | 455 kts | 225° |
| 2026-04-27 19:09 | 40.63111 | 68.42636 | 17931 ft | 455 kts | 226° |
| 2026-04-27 19:09 | 40.60911 | 68.39640 | 17937 ft | 455 kts | 224° |
| 2026-04-27 19:09 | 40.58648 | 68.36725 | 17934 ft | 455 kts | 225° |
| 2026-04-27 19:09 | 40.56434 | 68.33747 | 17933 ft | 455 kts | 225° |
| 2026-04-27 19:10 | 40.54200 | 68.30784 | 17936 ft | 457 kts | 224° |
| 2026-04-27 19:10 | 40.51915 | 68.27825 | 17930 ft | 460 kts | 224° |
| 2026-04-27 19:10 | 40.49638 | 68.24872 | 17936 ft | 462 kts | 224° |
| 2026-04-27 19:10 | 40.48133 | 68.22899 | 17936 ft | 459 kts | 224° |
| 2026-04-27 19:11 | 40.45106 | 68.18925 | 17940 ft | 460 kts | 224° |
| 2026-04-27 19:11 | 40.42826 | 68.15958 | 17943 ft | 464 kts | 224° |
| 2026-04-27 19:11 | 40.40541 | 68.12990 | 17938 ft | 461 kts | 224° |
| 2026-04-27 19:11 | 40.38257 | 68.10017 | 17934 ft | 460 kts | 224° |
| 2026-04-27 19:12 | 40.36023 | 68.07108 | 17923 ft | 446 kts | 224° |
| 2026-04-27 19:12 | 40.33805 | 68.04227 | 17921 ft | 447 kts | 224° |
| 2026-04-27 19:12 | 40.31628 | 68.01404 | 17873 ft | 434 kts | 224° |
| 2026-04-27 19:12 | 40.29503 | 67.98629 | 17364 ft | 431 kts | 224° |
| 2026-04-27 19:13 | 40.27372 | 67.95838 | 16657 ft | 434 kts | 224° |
| 2026-04-27 19:13 | 40.25250 | 67.93072 | 16011 ft | 436 kts | 224° |
| 2026-04-27 19:13 | 40.23092 | 67.90269 | 15335 ft | 437 kts | 224° |
| 2026-04-27 19:13 | 40.20959 | 67.87496 | 14683 ft | 427 kts | 224° |
| 2026-04-27 19:14 | 40.18878 | 67.84790 | 14050 ft | 417 kts | 224° |
| 2026-04-27 19:14 | 40.16839 | 67.82143 | 13380 ft | 408 kts | 224° |
| 2026-04-27 19:14 | 40.14869 | 67.79588 | 12759 ft | 388 kts | 224° |
| 2026-04-27 19:14 | 40.13011 | 67.77159 | 12163 ft | 367 kts | 226° |
| 2026-04-27 19:15 | 40.11431 | 67.74656 | 11619 ft | 348 kts | 229° |
| 2026-04-27 19:15 | 40.09870 | 67.72339 | 11191 ft | 330 kts | 227° |
| 2026-04-27 19:15 | 40.08387 | 67.70142 | 11051 ft | 317 kts | 229° |
| 2026-04-27 19:15 | 40.06973 | 67.67970 | 10946 ft | 310 kts | 229° |
| 2026-04-27 19:16 | 40.05604 | 67.65855 | 10742 ft | 300 kts | 229° |
| 2026-04-27 19:16 | 40.04711 | 67.64491 | 10640 ft | 294 kts | 229° |
| 2026-04-27 19:16 | 40.02980 | 67.61862 | 10410 ft | 283 kts | 229° |
| 2026-04-27 19:16 | 40.01707 | 67.59924 | 10128 ft | 280 kts | 229° |
| 2026-04-27 19:17 | 40.00448 | 67.58006 | 9869 ft | 277 kts | 229° |
| 2026-04-27 19:17 | 39.99197 | 67.56102 | 9598 ft | 277 kts | 229° |
| 2026-04-27 19:17 | 39.97938 | 67.54188 | 9336 ft | 278 kts | 229° |
| 2026-04-27 19:17 | 39.96688 | 67.52289 | 9075 ft | 274 kts | 229° |
| 2026-04-27 19:18 | 39.95455 | 67.50418 | 8817 ft | 273 kts | 229° |
| 2026-04-27 19:18 | 39.94207 | 67.48523 | 8570 ft | 276 kts | 229° |
| 2026-04-27 19:18 | 39.92960 | 67.46631 | 8305 ft | 274 kts | 229° |
| 2026-04-27 19:18 | 39.91718 | 67.44748 | 8038 ft | 273 kts | 229° |
| 2026-04-27 19:19 | 39.90482 | 67.42876 | 7777 ft | 272 kts | 229° |
| 2026-04-27 19:19 | 39.89250 | 67.41010 | 7521 ft | 271 kts | 229° |
| 2026-04-27 19:19 | 39.88023 | 67.39153 | 7259 ft | 270 kts | 229° |
| 2026-04-27 19:19 | 39.86818 | 67.37331 | 7002 ft | 269 kts | 229° |
| 2026-04-27 19:20 | 39.85600 | 67.35491 | 6743 ft | 268 kts | 229° |
| 2026-04-27 19:20 | 39.84386 | 67.33657 | 6486 ft | 267 kts | 229° |
| 2026-04-27 19:20 | 39.83176 | 67.31829 | 6221 ft | 266 kts | 229° |
| 2026-04-27 19:20 | 39.81970 | 67.30010 | 5948 ft | 265 kts | 229° |
| 2026-04-27 19:21 | 39.80770 | 67.28201 | 5676 ft | 264 kts | 229° |
| 2026-04-27 19:21 | 39.79565 | 67.26387 | 5436 ft | 266 kts | 229° |
| 2026-04-27 19:21 | 39.78359 | 67.24570 | 5173 ft | 265 kts | 229° |
| 2026-04-27 19:21 | 39.77173 | 67.22784 | 4914 ft | 264 kts | 229° |
| 2026-04-27 19:22 | 39.75973 | 67.20978 | 4708 ft | 262 kts | 228° |
| 2026-04-27 19:22 | 39.74794 | 67.19206 | 4558 ft | 256 kts | 228° |
| 2026-04-27 19:22 | 39.73639 | 67.17471 | 4432 ft | 248 kts | 228° |
| 2026-04-27 19:22 | 39.72541 | 67.15820 | 4308 ft | 236 kts | 228° |
| 2026-04-27 19:23 | 39.71493 | 67.14248 | 4175 ft | 224 kts | 228° |
| 2026-04-27 19:23 | 39.70498 | 67.12754 | 4035 ft | 214 kts | 228° |
| 2026-04-27 19:23 | 39.69575 | 67.11324 | 3883 ft | 198 kts | 233° |
| 2026-04-27 19:23 | 39.69191 | 67.09750 | 3660 ft | 184 kts | 270° |
| 2026-04-27 19:24 | 39.69294 | 67.08121 | 3453 ft | 179 kts | 277° |
| 2026-04-27 19:24 | 39.69423 | 67.06530 | 3204 ft | 177 kts | 277° |
| 2026-04-27 19:24 | 39.69551 | 67.04941 | 2974 ft | 176 kts | 276° |
| 2026-04-27 19:24 | 39.69675 | 67.03369 | 2770 ft | 175 kts | 275° |
| 2026-04-27 19:25 | 39.69795 | 67.01793 | 2531 ft | 176 kts | 273° |
| 2026-04-27 19:25 | 39.69918 | 67.00195 | 2319 ft | 178 kts | 274° |
| 2026-04-27 19:25 | 39.70033 | 66.98676 | 2221 ft | 149 kts | 275° |
| 2026-04-27 19:25 | 39.70102 | 66.97787 | 2208 ft | 56 kts | 275° |
| 2026-04-27 19:26 | 39.70121 | 66.97517 | 2206 ft | 24 kts | 274° |
| 2026-04-27 19:26 | 39.70135 | 66.97299 | 2202 ft | 25 kts | 275° |
| 2026-04-27 19:26 | 39.70151 | 66.97075 | 2198 ft | 23 kts | 268° |
| 2026-04-27 19:26 | 39.70087 | 66.97007 | 2200 ft | 8 kts | 181° |
| 2026-04-27 19:27 | 39.70047 | 66.97031 | 2199 ft | 7 kts | 135° |
| 2026-04-27 19:27 | 39.70016 | 66.97138 | 2201 ft | 15 kts | 107° |
| 2026-04-27 19:27 | 39.69988 | 66.97259 | 2203 ft | 13 kts | 107° |
| 2026-04-27 19:27 | 39.69960 | 66.97377 | 2203 ft | 14 kts | 107° |
| 2026-04-27 19:28 | 39.69930 | 66.97508 | 2205 ft | 16 kts | 107° |
| 2026-04-27 19:28 | 39.69902 | 66.97657 | 2207 ft | 17 kts | 100° |
| 2026-04-27 19:28 | 39.69891 | 66.97791 | 2208 ft | 14 kts | 96° |
| 2026-04-27 19:28 | 39.69881 | 66.97913 | 2209 ft | 13 kts | 96° |
| 2026-04-27 19:29 | 39.69872 | 66.98034 | 2211 ft | 14 kts | 96° |
| 2026-04-27 19:29 | 39.69861 | 66.98159 | 2212 ft | 14 kts | 96° |
| 2026-04-27 19:29 | 39.69851 | 66.98287 | 2215 ft | 14 kts | 95° |
| 2026-04-27 19:29 | 39.69842 | 66.98416 | 2215 ft | 15 kts | 96° |
| 2026-04-27 19:30 | 39.69831 | 66.98547 | 2216 ft | 15 kts | 96° |
| 2026-04-27 19:30 | 39.69821 | 66.98681 | 2219 ft | 15 kts | 96° |
| 2026-04-27 19:30 | 39.69810 | 66.98816 | 2222 ft | 15 kts | 96° |
| 2026-04-27 19:30 | 39.69798 | 66.98948 | 2220 ft | 13 kts | 102° |
| 2026-04-27 19:31 | 39.69763 | 66.98990 | 2220 ft | 7 kts | 148° |
| 2026-04-27 19:31 | 39.69745 | 66.99044 | 2225 ft | 7 kts | 97° |
| 2026-04-27 19:31 | 39.69743 | 66.99068 | 2225 ft | 0 kts | 95° |